createdAt,value
2019-03-27T00:01:49.734Z,-0.70
2019-03-27T00:04:19.977Z,-0.60
2019-03-27T00:06:50.185Z,-0.70
2019-03-27T00:09:20.430Z,-0.80
2019-03-27T00:11:50.719Z,-0.80
2019-03-27T00:14:21.331Z,-0.70
2019-03-27T00:16:51.565Z,-0.80
2019-03-27T00:19:21.841Z,-0.80
2019-03-27T00:21:52.100Z,-0.80
2019-03-27T00:24:22.311Z,-0.90
2019-03-27T00:26:52.562Z,-1.00
2019-03-27T00:29:22.779Z,-1.00
2019-03-27T00:31:53.046Z,-0.90
2019-03-27T00:34:23.312Z,-1.00
2019-03-27T00:36:53.565Z,-1.00
2019-03-27T00:39:23.755Z,-1.00
2019-03-27T00:41:54.028Z,-1.10
2019-03-27T00:44:24.720Z,-1.20
2019-03-27T00:46:54.957Z,-1.30
2019-03-27T00:49:25.207Z,-1.30
2019-03-27T00:51:55.463Z,-1.30
2019-03-27T00:54:25.760Z,-1.30
2019-03-27T00:56:55.985Z,-1.40
2019-03-27T00:59:26.254Z,-1.40
2019-03-27T01:02:04.903Z,-1.50
2019-03-27T01:04:35.185Z,-1.50
2019-03-27T01:07:06.016Z,-1.50
2019-03-27T01:09:36.918Z,-1.50
2019-03-27T01:12:07.289Z,-1.60
2019-03-27T01:14:38.986Z,-1.50
2019-03-27T01:17:09.267Z,-1.60
2019-03-27T01:19:39.495Z,-1.60
2019-03-27T01:22:09.795Z,-1.60
2019-03-27T01:24:40.049Z,-1.60
2019-03-27T01:27:10.482Z,-1.60
2019-03-27T01:29:40.753Z,-1.60
2019-03-27T01:32:11.029Z,-1.50
2019-03-27T01:34:41.279Z,-1.60
2019-03-27T01:37:13.379Z,-1.50
2019-03-27T01:39:43.615Z,-1.50
2019-03-27T01:42:16.667Z,-1.50
2019-03-27T01:44:46.911Z,-1.50
2019-03-27T01:47:17.293Z,-1.50
2019-03-27T01:49:47.514Z,-1.50
2019-03-27T01:52:17.864Z,-1.40
2019-03-27T01:54:48.061Z,-1.50
2019-03-27T01:57:18.352Z,-1.50
2019-03-27T01:59:48.621Z,-1.50
2019-03-27T02:02:19.281Z,-1.50
2019-03-27T02:04:49.593Z,-1.50
2019-03-27T02:07:19.916Z,-1.50
2019-03-27T02:09:50.137Z,-1.50
2019-03-27T02:12:20.522Z,-1.50
2019-03-27T02:14:50.782Z,-1.50
2019-03-27T02:17:21.087Z,-1.60
2019-03-27T02:19:51.388Z,-1.60
2019-03-27T02:22:21.658Z,-1.70
2019-03-27T02:24:51.882Z,-1.70
2019-03-27T02:27:22.611Z,-1.70
2019-03-27T02:29:53.261Z,-1.80
2019-03-27T02:32:23.733Z,-1.90
2019-03-27T02:34:54.019Z,-1.80
2019-03-27T02:37:24.301Z,-1.80
2019-03-27T02:39:55.724Z,-1.90
2019-03-27T02:42:26.006Z,-1.90
2019-03-27T02:44:56.276Z,-1.80
2019-03-27T02:47:26.495Z,-1.80
2019-03-27T02:49:56.803Z,-1.80
2019-03-27T02:52:27.058Z,-1.80
2019-03-27T02:54:57.289Z,-1.80
2019-03-27T02:57:27.570Z,-1.70
2019-03-27T02:59:58.434Z,-1.70
2019-03-27T03:02:28.714Z,-1.80
2019-03-27T03:04:58.952Z,-1.80
2019-03-27T03:07:29.714Z,-1.80
2019-03-27T03:09:59.970Z,-1.80
2019-03-27T03:12:30.194Z,-1.80
2019-03-27T03:15:00.509Z,-1.80
2019-03-27T03:17:30.688Z,-1.90
2019-03-27T03:20:01.725Z,-1.90
2019-03-27T03:22:31.979Z,-1.80
2019-03-27T03:25:03.165Z,-1.80
2019-03-27T03:27:33.460Z,-1.70
2019-03-27T03:30:04.752Z,-1.80
2019-03-27T03:32:35.393Z,-1.80
2019-03-27T03:35:06.442Z,-1.80
2019-03-27T03:37:36.701Z,-1.80
2019-03-27T03:40:07.614Z,-1.90
2019-03-27T03:42:37.946Z,-1.90
2019-03-27T03:45:08.679Z,-2.00
2019-03-27T03:47:39.924Z,-1.90
2019-03-27T03:50:17.273Z,-2.00
2019-03-27T03:52:47.782Z,-2.00
2019-03-27T03:55:18.237Z,-2.00
2019-03-27T03:57:48.812Z,-2.00
2019-03-27T04:00:19.271Z,-2.00
2019-03-27T04:02:52.334Z,-2.00
2019-03-27T04:05:26.118Z,-2.00
2019-03-27T04:07:56.527Z,-2.00
2019-03-27T04:10:26.855Z,-2.00
2019-03-27T04:12:57.244Z,-2.10
2019-03-27T04:15:27.632Z,-2.10
2019-03-27T04:17:57.887Z,-2.10
2019-03-27T04:20:28.183Z,-2.10
2019-03-27T04:22:58.574Z,-2.00
2019-03-27T04:25:28.898Z,-2.00
2019-03-27T04:27:59.178Z,-2.00
2019-03-27T04:30:29.486Z,-2.00
2019-03-27T04:32:59.731Z,-2.00
2019-03-27T04:35:30.174Z,-2.00
2019-03-27T04:38:00.440Z,-2.00
2019-03-27T04:40:30.763Z,-2.00
2019-03-27T04:43:01.395Z,-1.90
2019-03-27T04:45:33.121Z,-1.90
2019-03-27T04:48:03.356Z,-1.90
2019-03-27T04:50:33.602Z,-1.90
2019-03-27T04:53:03.827Z,-1.80
2019-03-27T04:55:34.070Z,-1.80
2019-03-27T04:58:04.301Z,-1.70
2019-03-27T05:00:34.550Z,-1.70
2019-03-27T05:03:04.800Z,-1.70
2019-03-27T05:05:35.068Z,-1.70
2019-03-27T05:08:05.281Z,-1.60
2019-03-27T05:10:35.581Z,-1.60
2019-03-27T05:13:05.783Z,-1.50
2019-03-27T05:15:36.035Z,-1.50
2019-03-27T05:18:06.370Z,-1.50
2019-03-27T05:20:36.590Z,-1.40
2019-03-27T05:23:06.837Z,-1.30
2019-03-27T05:25:37.252Z,-1.30
2019-03-27T05:28:07.441Z,-1.20
2019-03-27T05:30:38.925Z,-1.20
2019-03-27T05:33:09.664Z,-1.10
2019-03-27T05:35:39.922Z,-1.10
2019-03-27T05:38:10.894Z,-1.00
2019-03-27T05:40:41.093Z,-1.00
2019-03-27T05:43:11.303Z,-0.90
2019-03-27T05:45:41.691Z,-0.80
2019-03-27T05:48:11.891Z,-0.80
2019-03-27T05:50:42.134Z,-0.70
2019-03-27T05:53:12.448Z,-0.70
2019-03-27T05:55:42.716Z,-0.60
2019-03-27T05:58:13.001Z,-0.60
2019-03-27T06:00:43.209Z,-0.50
2019-03-27T06:03:13.540Z,-0.40
2019-03-27T06:05:43.781Z,-0.40
2019-03-27T06:08:14.019Z,-0.30
2019-03-27T06:10:44.304Z,-0.30
2019-03-27T06:13:19.484Z,-0.20
2019-03-27T06:15:50.661Z,-0.10
2019-03-27T06:18:21.327Z,0.00
2019-03-27T06:20:53.236Z,0.00
2019-03-27T06:23:23.471Z,0.10
2019-03-27T06:25:54.242Z,0.20
2019-03-27T06:28:24.482Z,0.20
2019-03-27T06:30:54.791Z,0.30
2019-03-27T06:33:25.099Z,0.40
2019-03-27T06:35:55.491Z,0.50
2019-03-27T06:38:26.367Z,0.50
2019-03-27T06:40:56.561Z,0.50
2019-03-27T06:43:26.844Z,0.50
2019-03-27T06:45:58.493Z,0.60
2019-03-27T06:48:29.054Z,0.70
2019-03-27T06:50:59.311Z,0.70
2019-03-27T06:53:29.519Z,0.80
2019-03-27T06:56:00.835Z,0.90
2019-03-27T06:58:31.057Z,1.00
2019-03-27T07:01:01.672Z,1.10
2019-03-27T07:03:31.880Z,1.20
2019-03-27T07:06:02.135Z,1.30
2019-03-27T07:08:32.854Z,1.40
2019-03-27T07:11:03.165Z,1.50
2019-03-27T07:13:33.497Z,1.60
2019-03-27T07:16:03.841Z,1.60
2019-03-27T07:18:40.030Z,1.70
2019-03-27T07:21:06.056Z,1.70
2019-03-27T07:23:36.356Z,1.70
2019-03-27T07:26:06.801Z,1.90
2019-03-27T07:28:37.168Z,2.00
2019-03-27T07:31:07.481Z,2.20
2019-03-27T07:33:37.748Z,2.20
2019-03-27T07:36:07.992Z,2.30
2019-03-27T07:38:38.278Z,2.40
2019-03-27T07:41:09.150Z,2.50
2019-03-27T07:43:39.480Z,2.60
2019-03-27T07:46:09.850Z,2.70
2019-03-27T07:48:52.969Z,2.80
2019-03-27T07:51:11.967Z,2.90
2019-03-27T07:53:42.243Z,3.00
2019-03-27T07:56:12.607Z,3.00
2019-03-27T07:58:42.869Z,3.10
2019-03-27T08:01:13.121Z,3.20
2019-03-27T08:03:43.445Z,3.20
2019-03-27T08:06:13.712Z,3.30
2019-03-27T08:08:43.961Z,3.30
2019-03-27T08:11:14.229Z,3.30
2019-03-27T08:13:44.443Z,3.40
2019-03-27T08:16:14.731Z,3.60
2019-03-27T08:18:44.988Z,3.70
2019-03-27T08:21:15.251Z,3.70
2019-03-27T08:23:45.499Z,3.80
2019-03-27T08:26:15.670Z,3.80
2019-03-27T08:28:45.979Z,3.70
2019-03-27T08:31:16.225Z,3.70
2019-03-27T08:33:46.490Z,3.80
2019-03-27T08:36:16.808Z,3.90
2019-03-27T08:38:47.068Z,4.00
2019-03-27T08:41:17.336Z,4.00
2019-03-27T08:43:48.753Z,4.10
2019-03-27T08:46:19.633Z,4.10
2019-03-27T08:48:49.866Z,4.20
2019-03-27T08:51:20.170Z,4.20
2019-03-27T08:53:50.417Z,4.30
2019-03-27T08:56:20.673Z,4.40
2019-03-27T08:58:50.880Z,4.40
2019-03-27T09:01:21.109Z,4.50
2019-03-27T09:03:51.345Z,4.50
2019-03-27T09:06:33.075Z,4.60
2019-03-27T09:08:53.954Z,4.70
2019-03-27T09:11:24.157Z,4.80
2019-03-27T09:13:56.077Z,5.00
2019-03-27T09:16:26.465Z,5.20
2019-03-27T09:18:56.736Z,5.50
2019-03-27T09:21:26.979Z,5.70
2019-03-27T09:23:57.284Z,5.90
2019-03-27T09:26:27.472Z,6.00
2019-03-27T09:28:58.076Z,6.00
2019-03-27T09:31:28.296Z,6.10
2019-03-27T09:33:58.750Z,6.00
2019-03-27T09:36:28.932Z,5.90
2019-03-27T09:38:59.207Z,5.70
2019-03-27T09:41:29.423Z,5.60
2019-03-27T09:43:59.663Z,5.50
2019-03-27T09:46:29.917Z,5.50
2019-03-27T09:49:02.489Z,5.50
2019-03-27T09:51:32.736Z,5.60
2019-03-27T09:54:03.087Z,5.70
2019-03-27T09:56:33.298Z,5.80
2019-03-27T09:59:06.031Z,5.90
2019-03-27T10:01:35.401Z,5.90
2019-03-27T10:04:05.734Z,5.90
2019-03-27T10:06:35.984Z,6.00
2019-03-27T10:09:07.489Z,6.20
2019-03-27T10:11:37.675Z,6.30
2019-03-27T10:14:07.956Z,6.50
2019-03-27T10:16:38.147Z,6.70
2019-03-27T10:19:08.393Z,6.80
2019-03-27T10:21:38.642Z,7.00
2019-03-27T10:24:08.841Z,6.90
2019-03-27T10:26:42.462Z,7.00
2019-03-27T10:29:11.770Z,7.00
2019-03-27T10:31:41.997Z,7.10
2019-03-27T10:34:12.255Z,7.20
2019-03-27T10:36:42.535Z,7.20
2019-03-27T10:39:13.564Z,7.20
2019-03-27T10:41:43.812Z,7.30
2019-03-27T10:44:17.349Z,7.50
2019-03-27T10:46:45.928Z,7.60
2019-03-27T10:49:16.192Z,7.80
2019-03-27T10:51:46.395Z,7.90
2019-03-27T10:54:16.620Z,8.00
2019-03-27T10:56:46.844Z,8.10
2019-03-27T10:59:17.072Z,8.10
2019-03-27T11:01:47.287Z,8.10
2019-03-27T11:04:17.517Z,8.10
2019-03-27T11:06:47.749Z,8.10
2019-03-27T11:09:17.988Z,8.10
2019-03-27T11:11:48.196Z,8.20
2019-03-27T11:14:18.403Z,8.30
2019-03-27T11:16:48.660Z,8.30
2019-03-27T11:19:18.862Z,8.30
2019-03-27T11:21:49.117Z,8.30
2019-03-27T11:24:19.373Z,8.20
2019-03-27T11:26:49.576Z,8.10
2019-03-27T11:29:19.772Z,8.10
2019-03-27T11:31:50.053Z,8.10
2019-03-27T11:34:20.730Z,8.00
2019-03-27T11:36:50.959Z,8.00
2019-03-27T11:39:21.218Z,7.90
2019-03-27T11:41:51.463Z,7.80
2019-03-27T11:44:21.712Z,7.70
2019-03-27T11:46:51.944Z,7.60
2019-03-27T11:49:22.151Z,7.50
2019-03-27T11:51:52.942Z,7.40
2019-03-27T11:54:23.204Z,7.40
2019-03-27T11:56:53.406Z,7.50
2019-03-27T11:59:23.646Z,7.70
2019-03-27T12:01:53.832Z,7.80
2019-03-27T12:04:24.079Z,7.90
2019-03-27T12:06:54.295Z,8.00
2019-03-27T12:09:24.535Z,8.10
2019-03-27T12:11:54.754Z,8.30
2019-03-27T12:14:24.993Z,8.30
2019-03-27T12:16:55.220Z,8.30
2019-03-27T12:19:27.746Z,8.10
2019-03-27T12:21:57.956Z,8.10
2019-03-27T12:24:31.311Z,8.00
2019-03-27T12:27:02.455Z,8.00
2019-03-27T12:29:32.729Z,7.90
2019-03-27T12:32:02.987Z,7.80
2019-03-27T12:34:35.459Z,7.70
2019-03-27T12:37:05.180Z,7.60
2019-03-27T12:39:35.437Z,7.60
2019-03-27T12:42:07.515Z,7.60
2019-03-27T12:44:37.711Z,7.60
2019-03-27T12:47:08.069Z,7.70
2019-03-27T12:49:38.515Z,7.80
2019-03-27T12:52:09.075Z,7.90
2019-03-27T12:54:39.260Z,8.10
2019-03-27T12:57:09.519Z,8.20
2019-03-27T12:59:39.726Z,8.40
2019-03-27T13:02:10.062Z,8.60
2019-03-27T13:04:40.309Z,8.70
2019-03-27T13:07:10.547Z,8.80
2019-03-27T13:09:40.743Z,8.80
2019-03-27T13:12:11.370Z,8.70
2019-03-27T13:14:41.537Z,8.60
2019-03-27T13:17:11.744Z,8.60
2019-03-27T13:19:41.978Z,8.60
2019-03-27T13:22:12.168Z,8.60
2019-03-27T13:24:42.414Z,8.60
2019-03-27T13:27:12.798Z,8.70
2019-03-27T13:29:43.005Z,8.80
2019-03-27T13:32:13.277Z,8.90
2019-03-27T13:34:43.483Z,9.00
2019-03-27T13:37:13.702Z,9.00
2019-03-27T13:39:44.737Z,9.00
2019-03-27T13:42:16.329Z,9.10
2019-03-27T13:44:46.523Z,9.20
2019-03-27T13:47:16.826Z,9.10
2019-03-27T13:49:47.076Z,9.10
2019-03-27T13:52:17.303Z,9.00
2019-03-27T13:54:48.042Z,9.00
2019-03-27T13:57:18.339Z,8.80
2019-03-27T13:59:48.550Z,8.80
2019-03-27T14:02:18.820Z,8.80
2019-03-27T14:04:49.081Z,8.90
2019-03-27T14:07:19.361Z,9.00
2019-03-27T14:09:50.472Z,9.00
2019-03-27T14:12:20.694Z,9.00
2019-03-27T14:14:50.953Z,8.90
2019-03-27T14:17:21.826Z,8.90
2019-03-27T14:19:52.166Z,8.90
2019-03-27T14:22:22.442Z,8.90
2019-03-27T14:24:52.620Z,8.90
2019-03-27T14:27:22.901Z,9.00
2019-03-27T14:29:53.098Z,9.00
2019-03-27T14:32:23.298Z,9.00
2019-03-27T14:34:53.963Z,9.00
2019-03-27T14:37:24.322Z,9.00
2019-03-27T14:39:54.529Z,9.00
2019-03-27T14:42:24.799Z,9.00
2019-03-27T14:44:55.034Z,9.10
2019-03-27T14:47:25.312Z,9.10
2019-03-27T14:49:55.904Z,9.10
2019-03-27T14:52:26.869Z,9.20
2019-03-27T14:54:57.931Z,9.10
2019-03-27T14:57:28.213Z,9.10
2019-03-27T14:59:58.536Z,9.10
2019-03-27T15:02:28.848Z,9.10
2019-03-27T15:04:59.066Z,9.20
2019-03-27T15:07:29.357Z,9.20
2019-03-27T15:09:59.597Z,9.20
2019-03-27T15:12:29.787Z,9.20
2019-03-27T15:15:00.097Z,9.20
2019-03-27T15:17:30.525Z,9.10
2019-03-27T15:20:00.784Z,9.00
2019-03-27T15:22:30.979Z,8.90
2019-03-27T15:25:01.205Z,8.80
2019-03-27T15:27:31.427Z,8.70
2019-03-27T15:30:01.631Z,8.70
2019-03-27T15:32:31.883Z,8.60
2019-03-27T15:35:02.157Z,8.50
2019-03-27T15:37:33.391Z,8.50
2019-03-27T15:40:03.786Z,8.40
2019-03-27T15:42:34.039Z,8.40
2019-03-27T15:45:04.845Z,8.30
2019-03-27T15:47:35.068Z,8.20
2019-03-27T15:50:05.683Z,8.10
2019-03-27T15:52:37.083Z,8.10
2019-03-27T15:55:08.203Z,8.10
2019-03-27T15:57:38.449Z,8.20
2019-03-27T16:00:10.156Z,8.30
2019-03-27T16:02:40.375Z,8.40
2019-03-27T16:05:10.683Z,8.40
2019-03-27T16:07:40.953Z,8.50
2019-03-27T16:10:11.589Z,8.60
2019-03-27T16:12:41.796Z,8.60
2019-03-27T16:15:12.367Z,8.70
2019-03-27T16:17:42.570Z,8.70
2019-03-27T16:20:13.079Z,8.70
2019-03-27T16:22:50.687Z,8.60
2019-03-27T16:25:15.325Z,8.60
2019-03-27T16:27:45.527Z,8.70
2019-03-27T16:30:17.321Z,8.60
2019-03-27T16:32:47.795Z,8.60
2019-03-27T16:35:18.075Z,8.50
2019-03-27T16:37:48.300Z,8.50
2019-03-27T16:40:22.926Z,8.50
2019-03-27T16:42:53.218Z,8.40
2019-03-27T16:45:23.475Z,8.40
2019-03-27T16:47:53.753Z,8.40
2019-03-27T16:50:23.959Z,8.30
2019-03-27T16:53:03.476Z,8.30
2019-03-27T16:55:26.127Z,8.30
2019-03-27T16:57:56.368Z,8.30
2019-03-27T17:00:26.680Z,8.30
2019-03-27T17:02:56.874Z,8.30
2019-03-27T17:05:27.151Z,8.30
2019-03-27T17:07:57.399Z,8.20
2019-03-27T17:10:27.673Z,8.20
2019-03-27T17:12:57.953Z,8.20
2019-03-27T17:15:29.030Z,8.10
2019-03-27T17:18:01.321Z,8.10
2019-03-27T17:20:33.058Z,8.10
2019-03-27T17:23:17.109Z,8.00
2019-03-27T17:25:37.746Z,8.00
2019-03-27T17:28:08.002Z,8.00
2019-03-27T17:30:38.194Z,7.90
2019-03-27T17:33:08.463Z,7.90
2019-03-27T17:35:38.645Z,7.80
2019-03-27T17:38:10.950Z,7.90
2019-03-27T17:40:40.771Z,7.90
2019-03-27T17:43:11.016Z,7.80
2019-03-27T17:45:41.355Z,7.80
2019-03-27T17:48:11.552Z,7.80
2019-03-27T17:50:41.782Z,7.80
2019-03-27T17:53:12.070Z,7.80
2019-03-27T17:55:42.270Z,7.70
2019-03-27T17:58:12.490Z,7.60
2019-03-27T18:00:49.220Z,7.60
2019-03-27T18:03:19.447Z,7.60
2019-03-27T18:05:49.754Z,7.60
2019-03-27T18:08:20.047Z,7.60
2019-03-27T18:10:50.265Z,7.60
2019-03-27T18:13:20.620Z,7.60
2019-03-27T18:15:52.377Z,7.60
2019-03-27T18:18:22.808Z,7.60
2019-03-27T18:20:52.996Z,7.60
2019-03-27T18:23:23.256Z,7.60
2019-03-27T18:25:53.606Z,7.60
2019-03-27T18:28:24.934Z,7.60
2019-03-27T18:30:55.275Z,7.60
2019-03-27T18:33:25.543Z,7.50
2019-03-27T18:35:55.783Z,7.50
2019-03-27T18:38:26.048Z,7.50
2019-03-27T18:40:56.297Z,7.40
2019-03-27T18:43:26.560Z,7.50
2019-03-27T18:45:57.346Z,7.50
2019-03-27T18:48:27.631Z,7.50
2019-03-27T18:50:57.900Z,7.40
2019-03-27T18:53:28.159Z,7.40
2019-03-27T18:55:58.508Z,7.40
2019-03-27T18:58:28.782Z,7.50
2019-03-27T19:00:59.040Z,7.50
2019-03-27T19:03:29.506Z,7.50
2019-03-27T19:05:59.772Z,7.60
2019-03-27T19:08:29.985Z,7.60
2019-03-27T19:11:00.193Z,7.60
2019-03-27T19:13:31.194Z,7.60
2019-03-27T19:16:03.480Z,7.60
2019-03-27T19:18:34.593Z,7.60
2019-03-27T19:21:04.840Z,7.60
2019-03-27T19:23:35.277Z,7.60
2019-03-27T19:26:06.092Z,7.60
2019-03-27T19:28:36.506Z,7.70
2019-03-27T19:31:06.814Z,7.70
2019-03-27T19:33:37.019Z,7.80
2019-03-27T19:36:07.849Z,7.80
2019-03-27T19:38:38.669Z,7.80
2019-03-27T19:41:11.675Z,7.80
2019-03-27T19:43:41.950Z,7.80
2019-03-27T19:46:12.157Z,7.80
2019-03-27T19:48:44.067Z,7.80
2019-03-27T19:51:16.511Z,7.80
2019-03-27T19:53:46.800Z,7.80
2019-03-27T19:56:19.800Z,7.70
2019-03-27T19:58:51.044Z,7.70
2019-03-27T20:01:24.369Z,7.70
2019-03-27T20:03:54.651Z,7.80
2019-03-27T20:06:25.423Z,7.80
2019-03-27T20:08:56.905Z,7.80
2019-03-27T20:11:27.460Z,7.80
2019-03-27T20:13:57.776Z,7.80
2019-03-27T20:16:35.363Z,7.80
2019-03-27T20:19:05.642Z,7.70
2019-03-27T20:21:35.883Z,7.70
2019-03-27T20:24:06.097Z,7.80
2019-03-27T20:26:36.347Z,7.70
2019-03-27T20:29:06.625Z,7.70
2019-03-27T20:31:37.000Z,7.70
2019-03-27T20:34:07.251Z,7.70
2019-03-27T20:36:37.455Z,7.70
2019-03-27T20:39:10.550Z,7.80
2019-03-27T20:41:42.651Z,7.80
2019-03-27T20:44:13.009Z,7.70
2019-03-27T20:46:43.289Z,7.70
2019-03-27T20:49:13.515Z,7.70
2019-03-27T20:51:44.464Z,7.70
2019-03-27T20:54:14.711Z,7.70
2019-03-27T20:56:45.003Z,7.70
2019-03-27T20:59:18.304Z,7.70
2019-03-27T21:01:48.216Z,7.70
2019-03-27T21:04:19.493Z,7.70
2019-03-27T21:06:51.155Z,7.80
2019-03-27T21:09:21.363Z,7.70
2019-03-27T21:11:51.716Z,7.70
2019-03-27T21:14:21.970Z,7.70
2019-03-27T21:16:52.212Z,7.70
2019-03-27T21:19:23.051Z,7.70
2019-03-27T21:21:53.280Z,7.70
2019-03-27T21:24:23.562Z,7.60
2019-03-27T21:26:53.828Z,7.60
2019-03-27T21:29:24.095Z,7.60
2019-03-27T21:31:54.438Z,7.60
2019-03-27T21:34:24.699Z,7.50
2019-03-27T21:36:54.903Z,7.50
2019-03-27T21:39:26.075Z,7.50
2019-03-27T21:41:56.888Z,7.60
2019-03-27T21:44:27.116Z,7.50
2019-03-27T21:46:57.570Z,7.50
2019-03-27T21:49:27.898Z,7.50
2019-03-27T21:51:58.083Z,7.50
2019-03-27T21:54:28.327Z,7.50
2019-03-27T21:56:58.848Z,7.60
2019-03-27T21:59:29.144Z,7.50
2019-03-27T22:01:59.426Z,7.50
2019-03-27T22:04:29.736Z,7.50
2019-03-27T22:07:00.095Z,7.50
2019-03-27T22:09:30.393Z,7.60
2019-03-27T22:12:00.748Z,7.50
2019-03-27T22:14:31.079Z,7.60
2019-03-27T22:17:01.410Z,7.60
2019-03-27T22:19:31.760Z,7.60
2019-03-27T22:22:02.100Z,7.60
2019-03-27T22:24:32.341Z,7.60
2019-03-27T22:27:02.672Z,7.60
2019-03-27T22:29:32.968Z,7.60
2019-03-27T22:32:03.253Z,7.60
2019-03-27T22:34:33.564Z,7.50
2019-03-27T22:37:03.857Z,7.60
2019-03-27T22:39:34.172Z,7.60
2019-03-27T22:42:04.457Z,7.60
2019-03-27T22:44:34.705Z,7.60
2019-03-27T22:47:05.041Z,7.60
2019-03-27T22:49:35.332Z,7.60
2019-03-27T22:52:05.608Z,7.60
2019-03-27T22:54:35.912Z,7.60
2019-03-27T22:57:06.276Z,7.60
2019-03-27T22:59:36.557Z,7.60
2019-03-27T23:02:06.917Z,7.60
2019-03-27T23:04:37.196Z,7.60
2019-03-27T23:07:07.513Z,7.60
2019-03-27T23:09:37.801Z,7.60
2019-03-27T23:12:08.074Z,7.50
2019-03-27T23:14:38.383Z,7.50
2019-03-27T23:17:08.650Z,7.50
2019-03-27T23:19:38.967Z,7.50
2019-03-27T23:22:09.237Z,7.50
2019-03-27T23:24:39.439Z,7.50
2019-03-27T23:27:09.736Z,7.50
2019-03-27T23:29:39.949Z,7.50
2019-03-27T23:32:10.177Z,7.50
2019-03-27T23:34:40.451Z,7.50
2019-03-27T23:37:10.662Z,7.50
2019-03-27T23:39:40.950Z,7.50
2019-03-27T23:42:11.183Z,7.50
2019-03-27T23:44:41.484Z,7.50
2019-03-27T23:47:11.751Z,7.60
2019-03-27T23:49:42.142Z,7.50
2019-03-27T23:52:12.365Z,7.50
2019-03-27T23:54:42.601Z,7.60
2019-03-27T23:57:12.881Z,7.50
2019-03-27T23:59:43.284Z,7.50
